sensor_id;sensor_type;location;lat;lon;timestamp;pressure;altitude;pressure_sealevel;temperature;humidity
35676;BME280;21790;42.668;23.298;2023-03-01T07:03:35;95171.19;;;11.91;50.54
35676;BME280;21790;42.668;23.298;2023-03-01T07:06:01;95167.34;;;12.07;53.44
35676;BME280;21790;42.668;23.298;2023-03-01T07:11:48;95155.03;;;12.08;49.91
35676;BME280;21790;42.668;23.298;2023-03-01T07:14:14;95171.94;;;11.83;50.51
35676;BME280;21790;42.668;23.298;2023-03-01T07:26:37;95152.59;;;12.19;49.64
35676;BME280;21790;42.668;23.298;2023-03-01T07:32:45;95150.13;;;12.57;49.26
35676;BME280;21790;42.668;23.298;2023-03-01T07:38:29;95148.44;;;12.14;49.57
35676;BME280;21790;42.668;23.298;2023-03-01T07:41:22;95146.75;;;11.99;50.27
35676;BME280;21790;42.668;23.298;2023-03-01T07:47:09;95138.88;;;11.97;49.91
35676;BME280;21790;42.668;23.298;2023-03-01T07:50:15;95140.25;;;12.11;50.12
35676;BME280;21790;42.668;23.298;2023-03-01T07:59:39;95130.44;;;12.19;49.45
35676;BME280;21790;42.668;23.298;2023-03-01T08:06:15;95134.88;;;12.44;49.01
35676;BME280;21790;42.668;23.298;2023-03-01T08:12:05;95133.69;;;12.27;49.41
35676;BME280;21790;42.668;23.298;2023-03-01T09:11:05;95120.56;;;12.54;47.93
35676;BME280;21790;42.668;23.298;2023-03-01T09:13:31;95125.34;;;12.54;47.95
35676;BME280;21790;42.668;23.298;2023-03-01T09:15:58;95131.66;;;12.45;47.75
35676;BME280;21790;42.668;23.298;2023-03-01T09:18:24;95121.63;;;12.39;48.04
35676;BME280;21790;42.668;23.298;2023-03-01T09:20:49;95130.75;;;12.30;48.06
35676;BME280;21790;42.668;23.298;2023-03-01T09:23:15;95136.72;;;12.01;53.04
35676;BME280;21790;42.668;23.298;2023-03-01T09:25:41;95124.63;;;12.95;52.65
35676;BME280;21790;42.668;23.298;2023-03-01T09:28:06;95113.66;;;13.52;49.76
35676;BME280;21790;42.668;23.298;2023-03-01T09:30:32;95117.34;;;13.82;45.85
35676;BME280;21790;42.668;23.298;2023-03-01T09:32:58;95126.16;;;13.48;45.84
35676;BME280;21790;42.668;23.298;2023-03-01T09:35:24;95124.97;;;12.97;46.46
35676;BME280;21790;42.668;23.298;2023-03-01T09:37:50;95121.50;;;12.06;48.76
35676;BME280;21790;42.668;23.298;2023-03-01T09:40:19;95121.03;;;11.98;49.31
35676;BME280;21790;42.668;23.298;2023-03-01T09:45:39;95102.44;;;13.14;46.93
35676;BME280;21790;42.668;23.298;2023-03-01T09:48:14;95107.69;;;13.03;46.78
35676;BME280;21790;42.668;23.298;2023-03-01T09:50:42;95118.97;;;12.81;47.20
35676;BME280;21790;42.668;23.298;2023-03-01T09:53:17;95094.09;;;13.14;46.71
35676;BME280;21790;42.668;23.298;2023-03-01T09:56:05;95101.44;;;12.75;47.30
35676;BME280;21790;42.668;23.298;2023-03-01T10:09:49;95090.28;;;12.05;48.92
35676;BME280;21790;42.668;23.298;2023-03-01T10:12:16;95083.94;;;12.14;48.78
35676;BME280;21790;42.668;23.298;2023-03-01T10:17:45;95082.84;;;12.48;48.27
35676;BME280;21790;42.668;23.298;2023-03-01T10:20:24;95082.31;;;12.77;48.06
35676;BME280;21790;42.668;23.298;2023-03-01T10:22:52;95086.22;;;12.34;48.56
35676;BME280;21790;42.668;23.298;2023-03-01T10:25:52;95078.84;;;12.40;48.57
35676;BME280;21790;42.668;23.298;2023-03-01T10:31:49;95084.53;;;12.45;48.52
35676;BME280;21790;42.668;23.298;2023-03-01T10:34:18;95069.88;;;12.63;48.43
35676;BME280;21790;42.668;23.298;2023-03-01T10:36:48;95071.69;;;12.75;48.00
35676;BME280;21790;42.668;23.298;2023-03-01T10:39:19;95056.66;;;12.58;48.04
35676;BME280;21790;42.668;23.298;2023-03-01T10:42:09;95067.09;;;12.63;47.89
35676;BME280;21790;42.668;23.298;2023-03-01T10:44:48;95065.31;;;12.42;48.63
35676;BME280;21790;42.668;23.298;2023-03-01T10:47:26;95068.94;;;12.75;47.88
35676;BME280;21790;42.668;23.298;2023-03-01T10:52:22;95068.00;;;12.69;47.69
35676;BME280;21790;42.668;23.298;2023-03-01T10:54:54;95057.38;;;13.10;47.26
35676;BME280;21790;42.668;23.298;2023-03-01T11:02:43;95065.75;;;13.00;46.91
35676;BME280;21790;42.668;23.298;2023-03-01T11:05:22;95065.09;;;12.64;48.07
35676;BME280;21790;42.668;23.298;2023-03-01T11:10:19;95069.75;;;13.09;46.90
35676;BME280;21790;42.668;23.298;2023-03-01T11:12:45;95066.34;;;13.05;47.20
35676;BME280;21790;42.668;23.298;2023-03-01T11:15:40;95065.84;;;13.24;46.65
35676;BME280;21790;42.668;23.298;2023-03-01T11:18:19;95057.34;;;13.28;46.42
35676;BME280;21790;42.668;23.298;2023-03-01T11:20:46;95066.00;;;13.21;46.29
35676;BME280;21790;42.668;23.298;2023-03-01T11:23:15;95064.97;;;13.00;46.88
35676;BME280;21790;42.668;23.298;2023-03-01T11:25:58;95056.31;;;13.07;46.84
35676;BME280;21790;42.668;23.298;2023-03-01T11:28:27;95050.34;;;12.99;46.79
35676;BME280;21790;42.668;23.298;2023-03-01T11:33:40;95058.50;;;13.12;46.86
35676;BME280;21790;42.668;23.298;2023-03-01T11:38:53;95047.22;;;13.07;46.94
35676;BME280;21790;42.668;23.298;2023-03-01T11:41:31;95045.03;;;13.11;47.14
35676;BME280;21790;42.668;23.298;2023-03-01T11:46:51;95034.66;;;13.53;46.37
35676;BME280;21790;42.668;23.298;2023-03-01T12:10:23;95013.56;;;13.23;46.66
35676;BME280;21790;42.668;23.298;2023-03-01T12:23:45;95024.09;;;13.19;46.78
35676;BME280;21790;42.668;23.298;2023-03-01T12:35:23;94996.03;;;13.64;45.89
35676;BME280;21790;42.668;23.298;2023-03-01T12:49:25;94983.19;;;13.52;45.79
35676;BME280;21790;42.668;23.298;2023-03-01T12:52:16;94990.72;;;12.95;46.97
35676;BME280;21790;42.668;23.298;2023-03-01T12:54:53;94982.91;;;12.84;47.40
35676;BME280;21790;42.668;23.298;2023-03-01T13:02:45;94990.25;;;13.53;45.90
35676;BME280;21790;42.668;23.298;2023-03-01T13:05:36;94993.13;;;13.82;45.42
35676;BME280;21790;42.668;23.298;2023-03-01T13:08:48;94993.66;;;14.10;44.59
35676;BME280;21790;42.668;23.298;2023-03-01T13:11:15;94979.41;;;13.79;44.87
35676;BME280;21790;42.668;23.298;2023-03-01T13:13:41;94991.91;;;14.13;44.34
35676;BME280;21790;42.668;23.298;2023-03-01T13:19:12;94984.91;;;14.03;44.40
35676;BME280;21790;42.668;23.298;2023-03-01T13:25:01;94986.75;;;14.06;44.36
35676;BME280;21790;42.668;23.298;2023-03-01T13:27:28;94993.31;;;13.79;44.98
35676;BME280;21790;42.668;23.298;2023-03-01T13:29:59;94990.31;;;13.68;45.16
35676;BME280;21790;42.668;23.298;2023-03-01T13:32:36;94996.00;;;13.88;54.28
35676;BME280;21790;42.668;23.298;2023-03-01T13:41:51;94994.22;;;14.00;44.31
35676;BME280;21790;42.668;23.298;2023-03-01T13:47:58;94994.66;;;13.83;45.08
35676;BME280;21790;42.668;23.298;2023-03-01T13:50:29;94986.09;;;13.72;45.56
35676;BME280;21790;42.668;23.298;2023-03-01T13:53:14;94989.13;;;13.98;45.04
35676;BME280;21790;42.668;23.298;2023-03-01T14:20:47;94978.09;;;14.04;45.36
35676;BME280;21790;42.668;23.298;2023-03-01T14:25:59;94975.13;;;13.93;45.70
35676;BME280;21790;42.668;23.298;2023-03-01T14:28:31;94973.31;;;14.04;45.40
35676;BME280;21790;42.668;23.298;2023-03-01T14:34:43;94976.69;;;14.23;45.39
35676;BME280;21790;42.668;23.298;2023-03-01T14:37:39;94970.28;;;14.17;45.49
35676;BME280;21790;42.668;23.298;2023-03-01T14:46:25;94959.25;;;13.69;45.76
35676;BME280;21790;42.668;23.298;2023-03-01T14:49:29;94965.38;;;13.59;46.38
35676;BME280;21790;42.668;23.298;2023-03-01T14:52:40;94974.97;;;13.58;46.60
35676;BME280;21790;42.668;23.298;2023-03-01T14:55:35;94974.47;;;13.12;48.15
35676;BME280;21790;42.668;23.298;2023-03-01T14:58:32;94962.41;;;13.62;47.21
35676;BME280;21790;42.668;23.298;2023-03-01T15:01:01;94959.53;;;13.33;48.02
35676;BME280;21790;42.668;23.298;2023-03-01T15:03:34;94956.97;;;13.29;48.22
35676;BME280;21790;42.668;23.298;2023-03-01T15:09:26;94944.28;;;13.05;48.84
35676;BME280;21790;42.668;23.298;2023-03-01T15:11:54;94964.97;;;12.94;49.27
35676;BME280;21790;42.668;23.298;2023-03-01T15:14:45;94958.72;;;13.18;48.78
35676;BME280;21790;42.668;23.298;2023-03-01T15:20:34;94955.59;;;13.25;48.90
35676;BME280;21790;42.668;23.298;2023-03-01T15:23:01;94957.19;;;13.17;48.70
35676;BME280;21790;42.668;23.298;2023-03-01T15:25:35;94961.81;;;13.58;47.89
35676;BME280;21790;42.668;23.298;2023-03-01T15:28:18;94961.41;;;12.70;49.42
35676;BME280;21790;42.668;23.298;2023-03-01T15:30:44;94962.47;;;12.73;49.05
35676;BME280;21790;42.668;23.298;2023-03-01T15:33:28;94951.63;;;13.17;47.92
35676;BME280;21790;42.668;23.298;2023-03-01T15:45:23;94951.81;;;13.04;48.46
35676;BME280;21790;42.668;23.298;2023-03-01T15:47:56;94962.34;;;13.00;48.39
35676;BME280;21790;42.668;23.298;2023-03-01T15:50:27;94956.72;;;13.09;47.89
35676;BME280;21790;42.668;23.298;2023-03-01T15:52:58;94959.41;;;13.04;48.12
35676;BME280;21790;42.668;23.298;2023-03-01T15:55:30;94945.31;;;12.83;48.45
35676;BME280;21790;42.668;23.298;2023-03-01T15:58:04;94943.19;;;12.78;48.74
35676;BME280;21790;42.668;23.298;2023-03-01T16:00:35;94939.38;;;12.67;48.98
35676;BME280;21790;42.668;23.298;2023-03-01T16:03:02;94944.09;;;12.84;48.64
35676;BME280;21790;42.668;23.298;2023-03-01T16:05:31;94934.72;;;12.49;49.42
35676;BME280;21790;42.668;23.298;2023-03-01T16:08:03;94951.06;;;12.38;49.49
35676;BME280;21790;42.668;23.298;2023-03-01T16:10:40;94945.25;;;12.27;50.03
35676;BME280;21790;42.668;23.298;2023-03-01T16:13:14;94942.66;;;12.56;49.47
35676;BME280;21790;42.668;23.298;2023-03-01T16:15:56;94959.22;;;12.74;48.78
35676;BME280;21790;42.668;23.298;2023-03-01T16:18:27;94947.69;;;12.99;48.33
35676;BME280;21790;42.668;23.298;2023-03-01T16:21:05;94949.56;;;12.70;49.22
35676;BME280;21790;42.668;23.298;2023-03-01T16:27:07;94953.00;;;12.04;50.66
35676;BME280;21790;42.668;23.298;2023-03-01T16:29:35;94943.63;;;12.44;49.88
35676;BME280;21790;42.668;23.298;2023-03-01T16:32:06;94950.25;;;12.46;49.66
35676;BME280;21790;42.668;23.298;2023-03-01T16:34:36;94946.06;;;12.51;49.40
35676;BME280;21790;42.668;23.298;2023-03-01T16:37:03;94949.91;;;12.02;50.35
35676;BME280;21790;42.668;23.298;2023-03-01T16:39:32;94951.56;;;12.27;50.05
35676;BME280;21790;42.668;23.298;2023-03-01T16:42:00;94940.44;;;12.36;49.78
35676;BME280;21790;42.668;23.298;2023-03-01T16:44:26;94939.13;;;12.55;49.24
35676;BME280;21790;42.668;23.298;2023-03-01T16:46:54;94933.31;;;12.44;49.31
35676;BME280;21790;42.668;23.298;2023-03-01T16:49:21;94932.31;;;12.66;48.96
35676;BME280;21790;42.668;23.298;2023-03-01T16:51:47;94937.56;;;12.64;48.82
35676;BME280;21790;42.668;23.298;2023-03-01T16:54:13;94938.94;;;12.68;48.86
35676;BME280;21790;42.668;23.298;2023-03-01T16:56:41;94940.75;;;12.71;48.98
35676;BME280;21790;42.668;23.298;2023-03-01T16:59:07;94939.38;;;12.34;49.55
35676;BME280;21790;42.668;23.298;2023-03-01T17:01:34;94943.94;;;12.46;49.31
35676;BME280;21790;42.668;23.298;2023-03-01T17:04:05;94942.25;;;12.48;49.37
35676;BME280;21790;42.668;23.298;2023-03-01T17:12:55;94930.22;;;12.51;49.27
35676;BME280;21790;42.668;23.298;2023-03-01T17:15:45;94933.56;;;12.65;49.53
35676;BME280;21790;42.668;23.298;2023-03-01T17:18:17;94934.94;;;12.60;48.96
35676;BME280;21790;42.668;23.298;2023-03-01T17:20:43;94939.09;;;12.32;49.81
35676;BME280;21790;42.668;23.298;2023-03-01T17:23:10;94947.63;;;12.52;49.31
35676;BME280;21790;42.668;23.298;2023-03-01T17:25:53;94941.38;;;12.75;49.26
35676;BME280;21790;42.668;23.298;2023-03-01T17:32:05;94944.59;;;12.74;49.11
35676;BME280;21790;42.668;23.298;2023-03-01T17:34:38;94952.31;;;12.70;48.92
35676;BME280;21790;42.668;23.298;2023-03-01T17:37:04;94945.16;;;12.54;49.33
35676;BME280;21790;42.668;23.298;2023-03-01T17:39:29;94939.16;;;12.46;49.41
35676;BME280;21790;42.668;23.298;2023-03-01T17:42:03;94954.94;;;12.31;49.76
35676;BME280;21790;42.668;23.298;2023-03-01T17:44:30;94949.06;;;12.29;49.79
35676;BME280;21790;42.668;23.298;2023-03-01T17:46:59;94954.84;;;12.49;49.17
35676;BME280;21790;42.668;23.298;2023-03-01T17:49:24;94958.53;;;12.55;48.96
35676;BME280;21790;42.668;23.298;2023-03-01T17:51:50;94957.50;;;12.77;48.57
35676;BME280;21790;42.668;23.298;2023-03-01T17:54:15;94958.19;;;12.63;48.80
35676;BME280;21790;42.668;23.298;2023-03-01T17:56:44;94952.84;;;12.59;48.99
35676;BME280;21790;42.668;23.298;2023-03-01T17:59:10;94952.22;;;12.55;48.69
35676;BME280;21790;42.668;23.298;2023-03-01T18:01:36;94960.47;;;12.73;48.58
35676;BME280;21790;42.668;23.298;2023-03-01T18:04:01;94956.03;;;12.25;49.63
35676;BME280;21790;42.668;23.298;2023-03-01T18:06:27;94962.66;;;12.18;49.70
35676;BME280;21790;42.668;23.298;2023-03-01T18:09:10;94963.28;;;12.64;48.88
35676;BME280;21790;42.668;23.298;2023-03-01T18:11:36;94958.91;;;12.81;48.17
35676;BME280;21790;42.668;23.298;2023-03-01T18:14:03;94965.69;;;13.04;48.01
35676;BME280;21790;42.668;23.298;2023-03-01T18:19:51;94962.22;;;12.62;49.14
35676;BME280;21790;42.668;23.298;2023-03-01T18:25:38;94961.47;;;12.52;49.01
35676;BME280;21790;42.668;23.298;2023-03-01T18:28:38;94966.00;;;12.73;48.43
35676;BME280;21790;42.668;23.298;2023-03-01T18:31:12;94960.81;;;12.66;48.55
35676;BME280;21790;42.668;23.298;2023-03-01T18:33:40;94977.56;;;12.72;48.38
35676;BME280;21790;42.668;23.298;2023-03-01T18:42:45;94970.97;;;12.69;48.54
35676;BME280;21790;42.668;23.298;2023-03-01T18:48:32;94973.75;;;12.69;48.36
35676;BME280;21790;42.668;23.298;2023-03-01T18:51:13;94992.72;;;11.83;50.64
35676;BME280;21790;42.668;23.298;2023-03-01T18:57:01;94989.03;;;12.55;48.55
35676;BME280;21790;42.668;23.298;2023-03-01T19:06:15;94979.75;;;12.68;48.49
35676;BME280;21790;42.668;23.298;2023-03-01T19:12:05;94969.56;;;12.32;49.16
35676;BME280;21790;42.668;23.298;2023-03-01T19:17:53;94987.72;;;12.33;49.04
35676;BME280;21790;42.668;23.298;2023-03-01T19:24:08;94994.19;;;12.72;48.48
35676;BME280;21790;42.668;23.298;2023-03-01T19:52:19;95015.03;;;12.67;48.61
35676;BME280;21790;42.668;23.298;2023-03-01T20:01:37;95019.03;;;13.08;47.88
35676;BME280;21790;42.668;23.298;2023-03-01T20:04:07;95012.84;;;13.04;47.92
35676;BME280;21790;42.668;23.298;2023-03-01T20:07:09;95008.00;;;14.09;57.85
35676;BME280;21790;42.668;23.298;2023-03-01T20:13:00;95027.25;;;12.93;48.22
35676;BME280;21790;42.668;23.298;2023-03-01T20:15:33;95029.25;;;13.35;47.45
35676;BME280;21790;42.668;23.298;2023-03-01T20:17:59;95040.75;;;13.19;47.79
35676;BME280;21790;42.668;23.298;2023-03-01T20:20:24;95037.09;;;13.04;47.98
35676;BME280;21790;42.668;23.298;2023-03-01T20:22:50;95036.47;;;12.99;48.27
35676;BME280;21790;42.668;23.298;2023-03-01T20:25:19;95033.78;;;13.23;47.90
35676;BME280;21790;42.668;23.298;2023-03-01T20:27:46;95034.47;;;13.00;48.19
35676;BME280;21790;42.668;23.298;2023-03-01T20:34:11;95034.31;;;13.04;48.48
35676;BME280;21790;42.668;23.298;2023-03-01T20:36:49;95018.53;;;12.77;49.07
35676;BME280;21790;42.668;23.298;2023-03-01T20:39:34;95027.59;;;12.86;48.97
35676;BME280;21790;42.668;23.298;2023-03-01T20:45:31;95037.81;;;13.04;48.49
35676;BME280;21790;42.668;23.298;2023-03-01T20:51:21;95025.19;;;12.70;49.14
35676;BME280;21790;42.668;23.298;2023-03-01T20:53:49;95021.16;;;12.71;49.20
35676;BME280;21790;42.668;23.298;2023-03-01T20:59:18;95030.94;;;12.48;49.71
35676;BME280;21790;42.668;23.298;2023-03-01T21:01:46;95031.34;;;12.74;49.14
35676;BME280;21790;42.668;23.298;2023-03-01T21:04:14;95030.25;;;12.72;49.24
35676;BME280;21790;42.668;23.298;2023-03-01T21:06:43;95037.06;;;12.62;49.49
35676;BME280;21790;42.668;23.298;2023-03-01T21:09:28;95034.41;;;12.76;49.13
35676;BME280;21790;42.668;23.298;2023-03-01T21:11:55;95038.44;;;12.75;49.35
35676;BME280;21790;42.668;23.298;2023-03-01T21:14:22;95033.91;;;12.87;49.03
35676;BME280;21790;42.668;23.298;2023-03-01T21:16:49;95029.09;;;12.87;49.17
35676;BME280;21790;42.668;23.298;2023-03-01T21:19:14;95031.88;;;12.96;48.73
35676;BME280;21790;42.668;23.298;2023-03-01T21:21:40;95034.97;;;12.89;48.83
35676;BME280;21790;42.668;23.298;2023-03-01T21:24:11;95026.97;;;12.82;49.10
35676;BME280;21790;42.668;23.298;2023-03-01T21:26:37;95032.25;;;12.71;49.21
35676;BME280;21790;42.668;23.298;2023-03-01T21:29:14;95045.25;;;12.65;49.73
35676;BME280;21790;42.668;23.298;2023-03-01T21:31:40;95039.19;;;12.67;49.43
35676;BME280;21790;42.668;23.298;2023-03-01T21:34:05;95031.94;;;12.78;49.23
35676;BME280;21790;42.668;23.298;2023-03-01T21:36:35;95040.22;;;12.87;49.44
35676;BME280;21790;42.668;23.298;2023-03-01T21:39:02;95042.69;;;12.85;49.36
35676;BME280;21790;42.668;23.298;2023-03-01T21:41:39;95029.56;;;12.95;49.17
35676;BME280;21790;42.668;23.298;2023-03-01T21:44:06;95034.06;;;12.92;49.07
35676;BME280;21790;42.668;23.298;2023-03-01T21:46:35;95032.00;;;12.51;50.26
35676;BME280;21790;42.668;23.298;2023-03-01T21:49:01;95029.25;;;12.51;50.11
35676;BME280;21790;42.668;23.298;2023-03-01T21:51:29;95034.66;;;12.87;49.32
35676;BME280;21790;42.668;23.298;2023-03-01T21:53:56;95040.00;;;13.00;49.07
35676;BME280;21790;42.668;23.298;2023-03-01T21:56:36;95035.78;;;12.81;49.53
35676;BME280;21790;42.668;23.298;2023-03-01T21:59:11;95036.59;;;12.63;50.04
35676;BME280;21790;42.668;23.298;2023-03-01T22:01:38;95038.63;;;12.44;50.50
35676;BME280;21790;42.668;23.298;2023-03-01T22:04:12;95037.25;;;12.58;50.23
35676;BME280;21790;42.668;23.298;2023-03-01T22:06:45;95036.63;;;12.54;50.40
35676;BME280;21790;42.668;23.298;2023-03-01T22:09:15;95033.53;;;12.61;50.17
35676;BME280;21790;42.668;23.298;2023-03-01T22:11:49;95048.19;;;12.52;50.25
35676;BME280;21790;42.668;23.298;2023-03-01T22:14:21;95038.56;;;12.02;51.34
35676;BME280;21790;42.668;23.298;2023-03-01T22:17:03;95043.06;;;12.60;49.94
35676;BME280;21790;42.668;23.298;2023-03-01T22:22:50;95033.53;;;12.61;49.38
35676;BME280;21790;42.668;23.298;2023-03-01T22:25:30;95038.78;;;12.59;49.74
35676;BME280;21790;42.668;23.298;2023-03-01T22:27:56;95027.09;;;12.46;49.86
35676;BME280;21790;42.668;23.298;2023-03-01T22:30:22;95027.47;;;11.93;51.21
35676;BME280;21790;42.668;23.298;2023-03-01T22:32:50;95035.75;;;12.11;50.70
35676;BME280;21790;42.668;23.298;2023-03-01T22:35:16;95030.50;;;12.41;49.79
35676;BME280;21790;42.668;23.298;2023-03-01T22:37:41;95030.28;;;12.63;49.54
35676;BME280;21790;42.668;23.298;2023-03-01T22:40:08;95026.09;;;11.98;50.81
35676;BME280;21790;42.668;23.298;2023-03-01T22:42:34;95030.84;;;12.06;50.56
35676;BME280;21790;42.668;23.298;2023-03-01T22:44:59;95034.56;;;11.94;50.87
35676;BME280;21790;42.668;23.298;2023-03-01T22:47:25;95024.56;;;11.97;50.71
35676;BME280;21790;42.668;23.298;2023-03-01T22:50:07;95026.09;;;12.16;50.71
35676;BME280;21790;42.668;23.298;2023-03-01T22:52:33;95029.31;;;11.96;51.02
35676;BME280;21790;42.668;23.298;2023-03-01T22:55:00;95036.56;;;11.85;51.40
35676;BME280;21790;42.668;23.298;2023-03-01T22:57:26;95027.88;;;11.37;52.27
35676;BME280;21790;42.668;23.298;2023-03-01T22:59:52;95029.75;;;11.67;51.64
35676;BME280;21790;42.668;23.298;2023-03-01T23:02:17;95034.88;;;11.11;53.08
35676;BME280;21790;42.668;23.298;2023-03-01T23:04:44;95041.28;;;11.66;51.85
35676;BME280;21790;42.668;23.298;2023-03-01T23:07:12;95031.25;;;11.32;52.45
35676;BME280;21790;42.668;23.298;2023-03-01T23:09:41;95022.22;;;11.59;51.94
35676;BME280;21790;42.668;23.298;2023-03-01T23:12:11;95023.16;;;12.10;50.87
35676;BME280;21790;42.668;23.298;2023-03-01T23:15:00;95016.69;;;11.95;50.51
35676;BME280;21790;42.668;23.298;2023-03-01T23:17:27;95021.19;;;11.84;50.95
35676;BME280;21790;42.668;23.298;2023-03-01T23:19:52;95017.91;;;11.67;51.54
35676;BME280;21790;42.668;23.298;2023-03-01T23:22:22;95016.41;;;11.93;51.04
35676;BME280;21790;42.668;23.298;2023-03-01T23:25:01;95011.78;;;12.08;50.53
35676;BME280;21790;42.668;23.298;2023-03-01T23:27:59;95020.06;;;11.72;51.53
35676;BME280;21790;42.668;23.298;2023-03-01T23:30:25;95026.72;;;11.84;51.16
35676;BME280;21790;42.668;23.298;2023-03-01T23:32:51;95021.28;;;12.35;50.04
35676;BME280;21790;42.668;23.298;2023-03-01T23:35:20;95016.97;;;12.25;50.02
35676;BME280;21790;42.668;23.298;2023-03-01T23:37:46;95019.47;;;11.95;50.50
35676;BME280;21790;42.668;23.298;2023-03-01T23:40:12;95020.22;;;12.14;50.29
35676;BME280;21790;42.668;23.298;2023-03-01T23:42:39;95019.13;;;12.30;49.93
35676;BME280;21790;42.668;23.298;2023-03-01T23:45:05;95012.81;;;12.29;49.90
35676;BME280;21790;42.668;23.298;2023-03-01T23:47:36;95008.78;;;12.48;49.64
35676;BME280;21790;42.668;23.298;2023-03-01T23:50:03;95012.47;;;12.54;48.89
35676;BME280;21790;42.668;23.298;2023-03-01T23:52:36;95008.81;;;12.81;48.45
35676;BME280;21790;42.668;23.298;2023-03-01T23:55:02;95014.69;;;12.74;48.78
35676;BME280;21790;42.668;23.298;2023-03-01T23:57:28;95017.88;;;12.91;47.99
35676;BME280;21790;42.668;23.298;2023-03-01T23:59:53;95003.28;;;12.72;48.37
